Time;durP1;ratioP1;P1;durP2;ratioP2;P2;SDS_P1;SDS_P2;PMS_P1;PMS_P2;Temp;Humidity;BMP_temperature;BMP_pressure;BME280_temperature;BME280_humidity;BME280_pressure;Samples;Min_cycle;Max_cycle;Signal;HPM_P1;HPM_P2
2022/07/16 00:01:50;;;;;;;1.20;1.10;;;14.70;92.80;;;;;;5014911;28;20583;-71
2022/07/16 00:04:16;;;;;;;0.60;0.60;;;14.70;92.70;;;;;;5015914;28;20404;-71
2022/07/16 00:06:43;;;;;;;0.83;0.83;;;14.50;93.00;;;;;;5015874;28;20558;-70
2022/07/16 00:09:10;;;;;;;1.60;1.50;;;14.40;93.40;;;;;;5015454;28;20847;-69
2022/07/16 00:11:36;;;;;;;0.93;0.93;;;14.40;93.50;;;;;;5014410;28;20469;-70
2022/07/16 00:14:02;;;;;;;1.07;1.07;;;14.40;93.50;;;;;;5015654;28;20414;-69
2022/07/16 00:16:27;;;;;;;0.63;0.63;;;14.40;94.30;;;;;;5015570;28;20460;-71
2022/07/16 00:21:37;;;;;;;1.00;0.90;;;14.50;93.80;;;;;;5015435;28;20193;-71
2022/07/16 00:24:06;;;;;;;2.80;2.70;;;14.40;93.70;;;;;;5015220;28;20425;-70
2022/07/16 00:26:33;;;;;;;0.60;0.60;;;14.40;93.50;;;;;;5015586;28;20261;-71
2022/07/16 00:28:58;;;;;;;0.50;0.50;;;14.40;93.60;;;;;;5015084;28;20436;-70
2022/07/16 00:31:24;;;;;;;1.70;1.03;;;14.30;93.80;;;;;;5015243;28;20409;-70
2022/07/16 00:33:49;;;;;;;1.17;1.07;;;14.30;94.20;;;;;;5013794;28;20186;-70
2022/07/16 00:36:15;;;;;;;0.70;0.50;;;14.30;94.10;;;;;;5015073;28;20184;-71
2022/07/16 00:38:41;;;;;;;1.10;1.10;;;14.30;94.00;;;;;;5014956;28;20205;-70
2022/07/16 00:41:16;;;;;;;1.97;1.87;;;14.30;94.10;;;;;;5015051;28;20167;-69
2022/07/16 00:43:50;;;;;;;0.80;0.80;;;14.30;94.20;;;;;;5015274;28;20167;-70
2022/07/16 00:46:16;;;;;;;0.73;0.70;;;14.20;94.10;;;;;;5014959;28;20838;-71
2022/07/16 00:48:42;;;;;;;0.80;0.73;;;14.30;94.10;;;;;;5014720;28;20517;-70
2022/07/16 00:51:08;;;;;;;1.10;1.10;;;14.20;94.00;;;;;;5015094;28;20476;-71
2022/07/16 00:53:35;;;;;;;0.53;0.53;;;14.20;94.10;;;;;;5014933;28;20403;-71
2022/07/16 00:56:00;;;;;;;0.50;0.50;;;14.20;94.40;;;;;;5014722;28;20241;-70
2022/07/16 00:58:26;;;;;;;0.87;0.87;;;14.00;94.60;;;;;;5014498;28;20533;-69
2022/07/16 01:00:52;;;;;;;0.60;0.60;;;13.90;94.80;;;;;;5014671;28;20441;-71
2022/07/16 01:03:18;;;;;;;1.00;1.00;;;13.90;94.90;;;;;;5014660;28;20468;-71
2022/07/16 01:05:45;;;;;;;1.30;1.20;;;13.90;95.20;;;;;;5014857;28;20570;-70
2022/07/16 01:08:11;;;;;;;0.93;0.77;;;14.00;95.00;;;;;;5014481;28;20531;-70
2022/07/16 01:10:39;;;;;;;0.60;0.60;;;14.00;95.10;;;;;;5014506;28;20405;-69
2022/07/16 01:13:07;;;;;;;0.73;0.73;;;14.00;95.30;;;;;;5014346;28;20912;-70
2022/07/16 01:15:33;;;;;;;0.77;0.77;;;14.00;95.00;;;;;;5015110;28;20418;-69
2022/07/16 01:17:58;;;;;;;0.97;0.97;;;14.00;94.60;;;;;;5014130;28;20481;-71
2022/07/16 01:20:24;;;;;;;0.70;0.70;;;14.00;95.00;;;;;;5014723;28;20451;-70
2022/07/16 01:22:52;;;;;;;0.80;0.80;;;14.00;94.90;;;;;;5014473;28;20171;-69
2022/07/16 01:25:18;;;;;;;2.83;1.47;;;14.00;94.80;;;;;;5014179;28;20210;-70
2022/07/16 01:27:44;;;;;;;0.43;0.43;;;14.00;95.20;;;;;;5014000;28;20438;-71
2022/07/16 01:30:10;;;;;;;1.03;1.00;;;14.00;94.90;;;;;;5014129;28;20718;-70
2022/07/16 01:32:37;;;;;;;0.70;0.60;;;13.90;94.70;;;;;;5014244;28;20528;-70
2022/07/16 01:35:03;;;;;;;0.90;0.90;;;13.90;94.70;;;;;;5014371;28;20403;-70
2022/07/16 01:37:29;;;;;;;1.10;1.10;;;13.80;94.90;;;;;;5013870;28;21032;-71
2022/07/16 01:39:55;;;;;;;2.00;1.60;;;13.80;95.00;;;;;;5014098;28;20419;-70
2022/07/16 01:42:21;;;;;;;1.70;1.23;;;13.90;95.00;;;;;;5014221;28;20401;-71
2022/07/16 01:44:46;;;;;;;0.97;0.97;;;13.80;95.10;;;;;;5014363;28;20783;-71
2022/07/16 01:47:13;;;;;;;0.77;0.77;;;13.80;95.10;;;;;;5013794;28;20178;-69
2022/07/16 01:49:39;;;;;;;1.27;1.20;;;13.80;95.10;;;;;;5013897;28;20190;-71
2022/07/16 01:52:18;;;;;;;1.20;0.70;;;13.80;95.50;;;;;;5014030;28;20435;-71
2022/07/16 01:54:46;;;;;;;1.07;1.07;;;13.80;95.30;;;;;;5014034;28;20406;-71
2022/07/16 01:57:12;;;;;;;0.97;0.97;;;13.80;95.30;;;;;;5012523;28;20452;-71
2022/07/16 01:59:39;;;;;;;0.70;0.70;;;13.80;95.10;;;;;;5013793;28;20428;-71
2022/07/16 02:02:05;;;;;;;0.90;0.90;;;13.70;95.10;;;;;;5013889;28;20488;-70
2022/07/16 02:04:31;;;;;;;0.97;0.97;;;13.70;95.20;;;;;;5014087;28;20405;-70
2022/07/16 02:06:57;;;;;;;1.03;0.93;;;13.70;95.60;;;;;;5013770;28;20467;-69
2022/07/16 02:09:22;;;;;;;1.77;1.67;;;13.60;95.70;;;;;;5013844;28;20769;-71
2022/07/16 02:11:48;;;;;;;0.53;0.50;;;13.60;95.80;;;;;;5013715;28;20407;-71
2022/07/16 02:14:14;;;;;;;0.90;0.90;;;13.60;95.70;;;;;;5013677;28;20589;-70
2022/07/16 02:16:39;;;;;;;1.70;0.93;;;13.50;95.80;;;;;;5013759;28;20205;-69
2022/07/16 02:19:05;;;;;;;0.87;0.80;;;13.50;96.10;;;;;;5013407;28;20197;-71
2022/07/16 02:21:31;;;;;;;0.40;0.40;;;13.20;96.10;;;;;;5013645;28;20291;-71
2022/07/16 02:23:58;;;;;;;1.10;1.00;;;13.40;96.20;;;;;;5013635;28;20221;-70
2022/07/16 02:26:23;;;;;;;0.50;0.50;;;13.40;96.30;;;;;;5017239;28;20795;-71
2022/07/16 02:28:49;;;;;;;1.63;1.10;;;13.40;96.30;;;;;;5017356;28;20426;-70
2022/07/16 02:31:15;;;;;;;0.90;0.70;;;13.40;96.30;;;;;;5017582;28;20177;-69
2022/07/16 02:33:40;;;;;;;1.03;0.63;;;13.40;96.20;;;;;;5017562;28;20164;-72
2022/07/16 02:36:07;;;;;;;2.20;1.13;;;13.40;96.10;;;;;;5017643;28;20519;-71
2022/07/16 02:38:33;;;;;;;0.90;0.90;;;13.40;96.10;;;;;;5017218;28;20249;-71
2022/07/16 02:40:59;;;;;;;1.07;0.87;;;13.40;96.20;;;;;;5017275;28;20901;-71
2022/07/16 02:43:25;;;;;;;0.80;0.70;;;13.30;96.20;;;;;;5017314;28;20493;-71
2022/07/16 02:45:50;;;;;;;1.13;1.07;;;13.30;96.40;;;;;;5017267;28;20174;-70
2022/07/16 02:48:16;;;;;;;1.00;1.00;;;13.30;96.60;;;;;;5016912;28;20650;-71
2022/07/16 02:50:42;;;;;;;1.47;1.20;;;13.30;96.70;;;;;;5017087;28;20183;-70
2022/07/16 02:53:08;;;;;;;1.33;1.23;;;13.30;96.70;;;;;;5017288;28;20402;-69
2022/07/16 02:55:33;;;;;;;0.73;0.73;;;13.30;96.40;;;;;;5015714;28;20202;-70
2022/07/16 02:57:59;;;;;;;0.80;0.80;;;13.30;96.40;;;;;;5016693;28;20564;-71
2022/07/16 03:00:25;;;;;;;0.50;0.50;;;13.30;96.50;;;;;;5016962;28;20165;-70
2022/07/16 03:02:51;;;;;;;0.80;0.80;;;13.40;96.50;;;;;;5017128;28;20167;-71
2022/07/16 03:05:17;;;;;;;0.90;0.90;;;13.40;96.60;;;;;;5017142;28;20400;-70
2022/07/16 03:07:43;;;;;;;0.80;0.80;;;13.30;96.60;;;;;;5016783;28;20554;-71
2022/07/16 03:10:12;;;;;;;2.30;1.40;;;13.40;96.70;;;;;;5016789;28;20485;-70
2022/07/16 03:12:38;;;;;;;0.80;0.80;;;13.40;96.30;;;;;;5016969;28;20816;-70
2022/07/16 03:15:04;;;;;;;0.70;0.70;;;13.40;96.40;;;;;;5016756;28;20399;-69
2022/07/16 03:17:30;;;;;;;0.67;0.67;;;13.30;96.10;;;;;;5016615;28;20451;-69
2022/07/16 03:19:56;;;;;;;0.60;0.60;;;13.40;96.10;;;;;;5016593;28;20432;-71
2022/07/16 03:22:22;;;;;;;0.53;0.50;;;13.40;96.10;;;;;;5016671;28;20413;-70
2022/07/16 03:24:47;;;;;;;1.00;1.00;;;13.40;96.10;;;;;;5016528;28;20228;-71
2022/07/16 03:27:13;;;;;;;1.87;1.77;;;13.40;96.30;;;;;;5016493;28;20179;-71
2022/07/16 03:29:39;;;;;;;0.60;0.60;;;13.40;96.20;;;;;;5016347;28;20190;-71
2022/07/16 03:32:06;;;;;;;0.90;0.90;;;13.40;95.90;;;;;;5016535;28;20817;-69
2022/07/16 03:34:32;;;;;;;1.20;1.10;;;13.30;96.10;;;;;;5016505;28;20408;-71
2022/07/16 03:36:58;;;;;;;0.60;0.60;;;13.30;96.10;;;;;;5015956;28;20481;-71
2022/07/16 03:39:24;;;;;;;0.70;0.70;;;13.30;96.30;;;;;;5016214;28;20428;-69
2022/07/16 03:41:50;;;;;;;0.40;0.40;;;13.20;96.60;;;;;;5016250;28;20392;-71
2022/07/16 03:44:15;;;;;;;0.90;0.87;;;13.20;96.50;;;;;;5016220;28;20188;-70
2022/07/16 03:46:41;;;;;;;1.20;0.90;;;13.20;96.70;;;;;;5016266;28;20190;-71
2022/07/16 03:49:07;;;;;;;0.80;0.80;;;13.20;96.70;;;;;;5015903;28;20227;-70
2022/07/16 03:51:34;;;;;;;0.50;0.50;;;13.20;96.60;;;;;;5015979;28;20759;-70
2022/07/16 03:54:00;;;;;;;1.83;1.70;;;13.20;96.50;;;;;;5015965;28;20412;-69
2022/07/16 03:56:26;;;;;;;1.27;0.93;;;13.10;96.70;;;;;;5014632;28;20412;-70
2022/07/16 03:58:52;;;;;;;0.50;0.47;;;13.10;96.70;;;;;;5015697;28;20449;-71
2022/07/16 04:01:17;;;;;;;1.03;0.90;;;13.10;96.60;;;;;;5015858;28;20412;-70
2022/07/16 04:03:43;;;;;;;0.60;0.60;;;13.10;96.60;;;;;;5015888;28;20413;-69
2022/07/16 04:06:09;;;;;;;1.40;1.30;;;13.10;97.00;;;;;;5015907;28;20570;-71
2022/07/16 04:08:34;;;;;;;0.40;0.40;;;13.10;96.90;;;;;;5015538;28;20558;-71
2022/07/16 04:11:01;;;;;;;1.07;0.83;;;13.10;96.80;;;;;;5015669;28;20205;-71
2022/07/16 04:13:27;;;;;;;1.43;1.03;;;13.10;97.00;;;;;;5015851;28;20169;-70
2022/07/16 04:15:52;;;;;;;0.80;0.80;;;13.10;97.00;;;;;;5015712;28;20492;-70
2022/07/16 04:18:20;;;;;;;0.90;0.90;;;13.10;96.80;;;;;;5015215;28;20244;-70
2022/07/16 04:20:46;;;;;;;0.50;0.50;;;13.20;96.70;;;;;;5015443;28;20161;-71
2022/07/16 04:23:12;;;;;;;1.40;1.20;;;13.10;96.40;;;;;;5015434;28;20494;-70
2022/07/16 04:25:37;;;;;;;0.70;0.70;;;13.20;96.50;;;;;;5015319;28;20846;-70
2022/07/16 04:28:03;;;;;;;0.50;0.50;;;13.30;96.90;;;;;;5015379;28;20413;-71
2022/07/16 04:30:29;;;;;;;0.80;0.80;;;13.30;97.00;;;;;;5015258;28;20167;-72
2022/07/16 04:32:55;;;;;;;0.60;0.50;;;13.30;96.60;;;;;;5015410;28;20891;-71
2022/07/16 04:35:22;;;;;;;0.67;0.67;;;13.40;96.70;;;;;;5015362;28;20166;-69
2022/07/16 04:37:48;;;;;;;1.63;0.67;;;13.40;97.00;;;;;;5013666;28;20982;-69
2022/07/16 04:40:15;;;;;;;0.73;0.70;;;13.40;97.20;;;;;;5014998;28;20441;-70
2022/07/16 04:42:43;;;;;;;0.80;0.80;;;13.40;97.10;;;;;;5015126;28;20591;-68
2022/07/16 04:45:10;;;;;;;1.07;0.83;;;13.80;97.30;;;;;;5014941;28;20437;-71
2022/07/16 04:47:37;;;;;;;1.13;0.80;;;14.30;97.00;;;;;;5014207;28;20417;-69
2022/07/16 04:50:03;;;;;;;1.10;1.00;;;14.80;95.90;;;;;;5015058;28;20434;-69
2022/07/16 04:52:30;;;;;;;1.30;1.20;;;15.10;95.10;;;;;;5015068;28;20418;-71
2022/07/16 04:54:56;;;;;;;0.77;0.77;;;15.30;93.90;;;;;;5015065;28;20416;-70
2022/07/16 04:57:22;;;;;;;0.40;0.40;;;15.40;93.40;;;;;;5014869;28;20446;-70
2022/07/16 04:59:48;;;;;;;1.13;1.00;;;15.60;93.30;;;;;;5014737;28;20489;-70
2022/07/16 05:04:58;;;;;;;1.80;1.70;;;16.30;92.50;;;;;;5015232;28;20610;-71
2022/07/16 05:07:23;;;;;;;1.70;1.23;;;16.90;91.90;;;;;;5014445;28;20438;-71
2022/07/16 05:09:49;;;;;;;1.13;1.13;;;17.40;90.60;;;;;;5014683;28;20196;-70
2022/07/16 05:12:15;;;;;;;0.80;0.80;;;18.10;90.00;;;;;;5014636;28;20630;-70
2022/07/16 05:14:41;;;;;;;0.80;0.70;;;19.10;86.50;;;;;;5014743;28;20178;-71
2022/07/16 05:17:06;;;;;;;1.50;1.40;;;20.10;83.40;;;;;;5014391;28;20513;-71
2022/07/16 05:19:32;;;;;;;0.93;0.83;;;20.60;81.60;;;;;;5014561;28;20537;-70
2022/07/16 05:21:57;;;;;;;0.80;0.80;;;20.80;79.60;;;;;;5014416;28;20221;-71
2022/07/16 05:24:23;;;;;;;0.77;0.60;;;20.80;77.50;;;;;;5012911;28;20197;-71
2022/07/16 05:26:49;;;;;;;0.63;0.63;;;20.50;78.10;;;;;;5013083;28;20182;-70
2022/07/16 05:29:15;;;;;;;0.53;0.53;;;20.40;78.30;;;;;;5014079;28;20426;-70
2022/07/16 05:31:41;;;;;;;0.60;0.60;;;20.30;78.80;;;;;;5014079;28;20420;-72
2022/07/16 05:34:06;;;;;;;1.47;0.70;;;20.10;79.00;;;;;;5014393;28;20261;-71
2022/07/16 05:36:32;;;;;;;1.50;1.40;;;19.90;79.50;;;;;;5012842;28;20246;-71
2022/07/16 05:38:58;;;;;;;1.00;0.90;;;19.60;82.10;;;;;;5013973;28;20203;-72
2022/07/16 05:41:23;;;;;;;1.10;0.80;;;19.40;83.40;;;;;;5012499;28;20683;-70
2022/07/16 05:43:49;;;;;;;1.00;1.00;;;19.40;83.10;;;;;;5014149;28;20179;-70
2022/07/16 05:46:15;;;;;;;0.90;0.80;;;19.50;82.90;;;;;;5013163;28;20218;-71
2022/07/16 05:48:40;;;;;;;1.07;0.80;;;19.80;83.20;;;;;;5012903;28;20248;-71
2022/07/16 05:51:06;;;;;;;0.77;0.77;;;20.30;81.80;;;;;;5011859;28;20178;-71
2022/07/16 05:53:32;;;;;;;1.00;0.90;;;20.60;80.70;;;;;;5012673;28;20228;-69
2022/07/16 05:55:57;;;;;;;1.10;1.03;;;21.00;80.30;;;;;;5013578;28;20652;-72
2022/07/16 05:58:23;;;;;;;1.13;0.77;;;21.60;79.00;;;;;;5011871;28;20201;-71
2022/07/16 06:00:48;;;;;;;1.43;1.03;;;22.30;76.60;;;;;;5013371;28;20580;-71
2022/07/16 06:03:14;;;;;;;0.97;0.97;;;22.60;74.30;;;;;;5013292;28;20240;-71
2022/07/16 06:05:40;;;;;;;0.60;0.60;;;22.40;73.90;;;;;;5013752;28;20246;-72
2022/07/16 06:08:05;;;;;;;0.80;0.80;;;22.20;75.80;;;;;;5013560;28;20176;-71
2022/07/16 06:10:31;;;;;;;0.60;0.60;;;21.90;75.50;;;;;;5013773;28;20184;-70
2022/07/16 06:12:57;;;;;;;0.70;0.70;;;21.50;78.70;;;;;;5013898;28;20171;-71
2022/07/16 06:15:24;;;;;;;0.93;0.70;;;21.20;79.50;;;;;;5013821;28;20167;-70
2022/07/16 06:17:49;;;;;;;0.60;0.60;;;21.10;80.00;;;;;;5013567;28;20853;-70
2022/07/16 06:20:15;;;;;;;1.07;0.97;;;21.30;79.80;;;;;;5013900;28;20521;-73
2022/07/16 06:22:41;;;;;;;0.70;0.70;;;21.70;76.00;;;;;;5013801;28;20263;-70
2022/07/16 06:25:07;;;;;;;0.70;0.60;;;22.70;72.30;;;;;;5013288;28;20222;-71
2022/07/16 06:27:32;;;;;;;0.67;0.67;;;24.30;70.00;;;;;;5013493;28;20585;-72
2022/07/16 06:30:05;;;;;;;0.80;0.60;;;25.80;63.30;;;;;;5013622;28;20496;-70
2022/07/16 06:32:31;;;;;;;0.63;0.63;;;27.20;62.30;;;;;;5013511;28;20574;-71
2022/07/16 06:34:57;;;;;;;0.93;0.60;;;28.00;59.50;;;;;;5013521;28;20440;-73
2022/07/16 06:37:22;;;;;;;0.67;0.67;;;28.10;57.40;;;;;;5013485;28;20691;-71
2022/07/16 06:39:48;;;;;;;0.70;0.70;;;28.00;56.70;;;;;;5013355;28;20221;-72
2022/07/16 06:42:13;;;;;;;0.63;0.63;;;27.80;55.90;;;;;;5013607;28;20179;-70
2022/07/16 06:44:40;;;;;;;0.80;0.60;;;27.70;56.20;;;;;;5013534;28;20168;-70
2022/07/16 06:47:06;;;;;;;0.57;0.57;;;27.60;56.50;;;;;;5013201;28;20176;-73
2022/07/16 06:49:31;;;;;;;0.80;0.80;;;27.80;55.30;;;;;;5013352;28;20438;-70
2022/07/16 06:51:57;;;;;;;0.53;0.53;;;27.60;55.60;;;;;;5012658;28;20238;-70
2022/07/16 06:54:23;;;;;;;0.60;0.60;;;27.70;54.80;;;;;;5012057;28;20624;-71
2022/07/16 06:56:48;;;;;;;0.60;0.60;;;27.80;53.90;;;;;;5012820;28;20209;-70
2022/07/16 06:59:14;;;;;;;0.67;0.63;;;28.50;52.50;;;;;;5010698;28;20191;-70
2022/07/16 07:01:39;;;;;;;2.30;0.80;;;29.10;51.10;;;;;;5011067;28;20174;-71
2022/07/16 07:04:05;;;;;;;0.60;0.60;;;29.70;49.10;;;;;;5013279;28;20194;-71
2022/07/16 07:06:31;;;;;;;1.53;0.70;;;30.90;47.50;;;;;;5011833;28;20175;-71
2022/07/16 07:08:56;;;;;;;0.60;0.60;;;32.30;46.10;;;;;;5013439;28;20645;-71
2022/07/16 07:11:22;;;;;;;0.60;0.40;;;33.80;44.10;;;;;;5013550;28;20640;-71
2022/07/16 07:13:48;;;;;;;0.67;0.67;;;34.80;40.80;;;;;;5014083;28;20238;-71
2022/07/16 07:16:14;;;;;;;0.67;0.67;;;34.90;39.90;;;;;;5016195;28;20655;-71
2022/07/16 07:18:40;;;;;;;0.70;0.70;;;34.60;38.70;;;;;;5014933;28;20214;-71
2022/07/16 07:21:05;;;;;;;0.60;0.60;;;34.40;39.30;;;;;;5015288;28;20410;-71
2022/07/16 07:23:31;;;;;;;0.60;0.60;;;34.60;38.10;;;;;;5016210;28;20182;-71
2022/07/16 07:25:57;;;;;;;0.80;0.70;;;34.20;36.90;;;;;;5015334;28;20592;-72
2022/07/16 07:28:23;;;;;;;0.70;0.70;;;33.80;38.70;;;;;;5013931;28;20644;-71
2022/07/16 07:30:50;;;;;;;1.00;0.70;;;33.50;37.20;;;;;;5015871;28;20442;-71
2022/07/16 07:33:15;;;;;;;0.53;0.53;;;33.50;36.90;;;;;;5014427;28;20429;-71
2022/07/16 07:35:41;;;;;;;1.00;0.80;;;33.70;37.10;;;;;;5016991;28;20180;-72
2022/07/16 07:38:08;;;;;;;0.53;0.53;;;33.90;37.00;;;;;;5016111;28;20203;-71
2022/07/16 07:40:33;;;;;;;0.97;0.80;;;34.10;35.80;;;;;;5014553;28;20406;-71
2022/07/16 07:42:59;;;;;;;1.90;0.90;;;34.50;33.80;;;;;;5015784;28;20168;-72
2022/07/16 07:45:26;;;;;;;0.50;0.50;;;34.90;35.40;;;;;;5014771;28;20550;-71
2022/07/16 07:47:52;;;;;;;0.70;0.70;;;35.70;34.00;;;;;;5016004;28;20179;-71
2022/07/16 07:50:17;;;;;;;1.10;0.70;;;35.90;31.90;;;;;;5016031;28;20427;-69
2022/07/16 07:52:43;;;;;;;0.57;0.57;;;36.20;31.70;;;;;;5015461;28;20259;-69
2022/07/16 07:55:09;;;;;;;0.60;0.60;;;36.60;32.10;;;;;;5014689;28;20612;-69
2022/07/16 07:57:34;;;;;;;0.60;0.60;;;37.60;31.30;;;;;;5015782;28;20246;-69
2022/07/16 08:00:00;;;;;;;1.33;0.83;;;38.60;29.50;;;;;;5015852;28;20325;-70
2022/07/16 08:02:26;;;;;;;0.83;0.70;;;39.60;28.20;;;;;;5016068;28;20175;-71
2022/07/16 08:04:53;;;;;;;0.50;0.50;;;39.80;27.70;;;;;;5014120;28;20179;-70
2022/07/16 08:07:18;;;;;;;0.87;0.70;;;40.20;27.40;;;;;;5014993;28;20526;-70
2022/07/16 08:09:44;;;;;;;1.17;1.00;;;40.50;27.10;;;;;;5015303;28;20445;-70
2022/07/16 08:12:10;;;;;;;0.50;0.50;;;40.60;27.00;;;;;;5014403;28;20175;-70
2022/07/16 08:14:35;;;;;;;0.60;0.60;;;40.80;27.10;;;;;;5015888;28;20678;-70
2022/07/16 08:17:02;;;;;;;1.07;0.50;;;41.00;26.70;;;;;;5014324;28;20609;-70
2022/07/16 08:19:30;;;;;;;0.60;0.60;;;40.50;26.40;;;;;;5015952;28;20587;-71
2022/07/16 08:21:56;;;;;;;0.60;0.60;;;40.20;26.20;;;;;;5015617;28;20755;-70
2022/07/16 08:27:06;;;;;;;4.43;0.87;;;39.30;26.70;;;;;;5014912;28;20181;-70
2022/07/16 08:29:32;;;;;;;1.37;0.50;;;39.30;27.70;;;;;;5015268;28;20965;-70
2022/07/16 08:31:58;;;;;;;0.93;0.83;;;39.60;26.80;;;;;;5015484;28;20419;-70
2022/07/16 08:34:24;;;;;;;0.80;0.60;;;39.50;26.40;;;;;;5015412;28;20184;-70
2022/07/16 08:36:51;;;;;;;0.63;0.63;;;40.10;26.10;;;;;;5015340;28;20198;-70
2022/07/16 08:39:18;;;;;;;0.70;0.70;;;40.50;27.10;;;;;;5014957;28;20857;-71
2022/07/16 08:41:44;;;;;;;0.50;0.50;;;40.70;26.40;;;;;;5015341;28;20402;-70
2022/07/16 08:44:13;;;;;;;0.70;0.70;;;40.80;26.00;;;;;;5015136;28;20425;-70
2022/07/16 08:46:40;;;;;;;0.57;0.57;;;41.20;25.10;;;;;;5014967;28;20403;-70
2022/07/16 08:49:07;;;;;;;0.80;0.80;;;41.30;25.10;;;;;;5013486;28;20437;-70
2022/07/16 08:51:39;;;;;;;0.80;0.50;;;41.40;24.50;;;;;;5014405;28;20411;-70
2022/07/16 08:54:05;;;;;;;0.53;0.53;;;41.30;24.70;;;;;;5014516;28;20411;-70
2022/07/16 08:56:32;;;;;;;1.03;0.70;;;40.90;24.80;;;;;;5013086;28;20910;-70
2022/07/16 08:58:58;;;;;;;0.60;0.60;;;40.10;25.60;;;;;;5014686;28;20191;-70
2022/07/16 09:01:29;;;;;;;0.50;0.50;;;40.30;25.60;;;;;;5014944;28;20430;-70
2022/07/16 09:03:58;;;;;;;0.63;0.60;;;40.50;25.10;;;;;;5014095;28;20411;-70
2022/07/16 09:06:25;;;;;;;0.80;0.80;;;40.70;25.30;;;;;;5013781;28;20779;-70
2022/07/16 09:08:52;;;;;;;1.20;1.10;;;40.50;25.90;;;;;;5012791;28;20836;-70
2022/07/16 09:11:27;;;;;;;0.50;0.50;;;39.60;25.60;;;;;;5014130;28;20403;-70
2022/07/16 09:14:22;;;;;;;0.60;0.60;;;39.30;25.60;;;;;;5013850;28;20413;-69
2022/07/16 09:16:51;;;;;;;0.93;0.80;;;38.40;27.30;;;;;;5001055;28;20852;-70
2022/07/16 09:19:22;;;;;;;0.87;0.87;;;38.30;27.90;;;;;;5010355;28;20435;-71
2022/07/16 09:22:11;;;;;;;0.77;0.77;;;38.00;28.30;;;;;;5014392;28;20406;-70
2022/07/16 09:24:48;;;;;;;0.77;0.77;;;37.60;28.80;;;;;;5013014;28;20977;-70
2022/07/16 09:27:22;;;;;;;1.10;0.93;;;37.10;29.60;;;;;;5014372;28;20970;-70
2022/07/16 09:29:59;;;;;;;0.70;0.70;;;37.00;29.80;;;;;;5014918;28;20489;-70
2022/07/16 09:32:29;;;;;;;1.23;1.23;;;36.40;30.60;;;;;;5013046;28;20429;-70
2022/07/16 09:35:02;;;;;;;0.50;0.50;;;36.10;30.60;;;;;;5014031;28;20413;-70
2022/07/16 09:37:45;;;;;;;1.07;0.90;;;35.30;31.90;;;;;;5013442;28;20541;-70
2022/07/16 09:40:11;;;;;;;2.90;2.13;;;35.00;31.60;;;;;;5014179;28;20440;-70
2022/07/16 09:42:39;;;;;;;1.73;1.60;;;34.90;32.90;;;;;;5014169;28;20472;-69
2022/07/16 09:45:06;;;;;;;0.73;0.73;;;34.20;33.40;;;;;;5014044;28;21022;-70
2022/07/16 09:47:32;;;;;;;0.70;0.70;;;33.90;35.40;;;;;;5013934;28;20419;-70
2022/07/16 09:49:58;;;;;;;1.00;1.00;;;34.00;34.00;;;;;;5013812;28;20440;-70
2022/07/16 09:52:30;;;;;;;1.07;1.07;;;33.60;34.80;;;;;;5014169;28;20190;-72
2022/07/16 09:54:56;;;;;;;0.53;0.53;;;33.50;35.10;;;;;;5014149;28;20911;-71
2022/07/16 09:57:25;;;;;;;0.60;0.60;;;33.60;34.30;;;;;;5013847;28;20458;-72
2022/07/16 09:59:52;;;;;;;0.60;0.60;;;33.50;34.10;;;;;;5013826;28;20870;-71
2022/07/16 10:02:18;;;;;;;1.80;1.00;;;33.30;34.30;;;;;;5014003;28;20429;-72
2022/07/16 10:04:44;;;;;;;1.63;1.20;;;33.10;34.70;;;;;;5013890;28;20407;-72
2022/07/16 10:07:09;;;;;;;0.60;0.60;;;33.00;36.50;;;;;;5013518;28;20452;-71
2022/07/16 10:09:36;;;;;;;1.23;0.80;;;32.90;35.40;;;;;;5013560;28;20203;-72
2022/07/16 10:12:08;;;;;;;0.63;0.63;;;32.90;35.20;;;;;;5013804;28;20255;-71
2022/07/16 10:14:40;;;;;;;1.03;0.93;;;33.10;35.90;;;;;;5013775;28;20410;-72
2022/07/16 10:17:16;;;;;;;0.90;0.90;;;33.80;37.60;;;;;;5013537;28;20454;-72
2022/07/16 10:19:42;;;;;;;1.23;1.13;;;34.00;34.50;;;;;;5013415;28;20426;-72
2022/07/16 10:22:18;;;;;;;0.63;0.63;;;34.10;34.10;;;;;;5011351;28;20402;-71
2022/07/16 10:24:50;;;;;;;0.80;0.70;;;33.90;33.70;;;;;;5011665;28;20444;-71
2022/07/16 10:27:17;;;;;;;0.93;0.90;;;33.80;33.90;;;;;;5013788;28;20438;-72
2022/07/16 10:29:43;;;;;;;0.50;0.50;;;34.00;34.50;;;;;;5011264;28;20429;-72
2022/07/16 10:34:54;;;;;;;0.70;0.70;;;34.30;34.60;;;;;;5013228;28;20186;-71
2022/07/16 10:37:30;;;;;;;0.80;0.80;;;33.90;33.90;;;;;;5013434;28;20477;-71
2022/07/16 10:40:10;;;;;;;4.70;1.10;;;33.50;35.80;;;;;;5013407;28;20446;-71
2022/07/16 10:42:36;;;;;;;1.00;1.00;;;33.40;36.70;;;;;;5013467;28;20767;-72
2022/07/16 10:45:03;;;;;;;1.00;1.00;;;33.10;35.80;;;;;;5013610;28;20414;-72
2022/07/16 10:47:44;;;;;;;0.77;0.77;;;32.60;38.70;;;;;;5016175;28;20421;-72
2022/07/16 10:50:21;;;;;;;1.07;0.90;;;32.90;38.20;;;;;;5015987;28;20434;-72
2022/07/16 10:52:48;;;;;;;1.03;0.93;;;33.10;37.10;;;;;;5016860;28;20427;-72
2022/07/16 10:55:34;;;;;;;0.50;0.50;;;33.10;37.20;;;;;;5017213;28;20398;-71
2022/07/16 10:58:01;;;;;;;1.17;1.17;;;32.80;37.70;;;;;;5016823;28;20870;-72
2022/07/16 11:00:27;;;;;;;0.70;0.70;;;32.50;37.60;;;;;;5015762;28;20981;-71
2022/07/16 11:03:01;;;;;;;0.60;0.60;;;32.00;38.50;;;;;;5016873;28;20900;-71
2022/07/16 11:05:28;;;;;;;0.70;0.70;;;31.50;39.40;;;;;;5017027;28;20457;-71
2022/07/16 11:07:54;;;;;;;0.73;0.73;;;31.10;38.40;;;;;;5016642;28;20501;-71
2022/07/16 11:10:24;;;;;;;1.57;1.07;;;30.30;40.20;;;;;;5016819;28;20453;-71
2022/07/16 11:12:50;;;;;;;0.80;0.77;;;29.40;41.20;;;;;;5017044;28;20227;-71
2022/07/16 11:15:16;;;;;;;0.63;0.63;;;29.70;43.80;;;;;;5016920;28;20402;-72
2022/07/16 11:17:42;;;;;;;1.43;1.27;;;29.80;45.00;;;;;;5016506;28;20206;-71
2022/07/16 11:20:09;;;;;;;1.50;0.90;;;30.00;42.00;;;;;;5016590;28;20441;-71
2022/07/16 11:22:35;;;;;;;0.90;0.90;;;29.80;40.40;;;;;;5016863;28;20206;-71
2022/07/16 11:25:05;;;;;;;0.70;0.70;;;29.60;40.60;;;;;;5016482;28;20454;-71
2022/07/16 11:27:36;;;;;;;0.67;0.67;;;29.40;41.40;;;;;;5016557;28;20480;-71
2022/07/16 11:30:08;;;;;;;1.20;1.10;;;29.30;42.50;;;;;;5016389;28;20430;-71
2022/07/16 11:32:47;;;;;;;0.93;0.87;;;29.30;44.00;;;;;;5016416;28;20777;-71
2022/07/16 11:35:13;;;;;;;0.70;0.70;;;29.50;43.10;;;;;;5016467;28;20906;-72
2022/07/16 11:37:57;;;;;;;0.93;0.93;;;29.50;43.30;;;;;;5016191;28;20458;-71
2022/07/16 11:40:35;;;;;;;0.73;0.73;;;28.80;42.10;;;;;;5016181;28;20388;-71
2022/07/16 11:43:01;;;;;;;0.80;0.80;;;28.80;44.40;;;;;;5016655;28;20434;-71
2022/07/16 11:45:28;;;;;;;0.67;0.67;;;29.10;42.70;;;;;;5016192;28;20441;-71
2022/07/16 11:48:12;;;;;;;0.97;0.90;;;29.10;42.70;;;;;;5015962;28;20849;-71
2022/07/16 11:50:39;;;;;;;1.13;0.93;;;28.70;43.60;;;;;;5016056;28;20410;-71
2022/07/16 11:53:05;;;;;;;0.93;0.80;;;28.40;43.90;;;;;;5016296;28;20410;-71
2022/07/16 11:55:31;;;;;;;0.60;0.60;;;28.20;44.70;;;;;;5016060;28;20413;-71
2022/07/16 11:57:56;;;;;;;0.80;0.77;;;27.90;43.90;;;;;;5015683;28;20203;-71
2022/07/16 12:00:22;;;;;;;0.83;0.83;;;27.90;44.60;;;;;;5015898;28;20195;-72
2022/07/16 12:02:55;;;;;;;0.87;0.87;;;28.00;45.00;;;;;;5016002;28;20656;-71
2022/07/16 12:05:28;;;;;;;0.93;0.87;;;28.10;45.80;;;;;;5016058;28;20577;-71
2022/07/16 12:07:54;;;;;;;0.80;0.80;;;27.90;46.00;;;;;;5015819;28;20949;-72
2022/07/16 12:10:25;;;;;;;0.90;0.90;;;27.70;47.50;;;;;;5015836;28;20462;-71
2022/07/16 12:13:04;;;;;;;0.73;0.73;;;27.50;45.50;;;;;;5015701;28;20171;-71
2022/07/16 12:15:30;;;;;;;1.50;0.90;;;27.40;48.30;;;;;;5015676;28;20414;-71
2022/07/16 12:18:10;;;;;;;1.03;0.90;;;27.10;47.30;;;;;;5015382;28;20457;-71
2022/07/16 12:20:36;;;;;;;0.80;0.80;;;26.70;46.90;;;;;;5015685;28;20467;-71
2022/07/16 12:23:07;;;;;;;0.60;0.60;;;26.50;51.10;;;;;;5015867;28;20466;-71
2022/07/16 12:25:39;;;;;;;2.20;1.07;;;26.40;51.40;;;;;;5015522;28;20208;-71
2022/07/16 12:28:20;;;;;;;1.20;1.10;;;26.70;49.60;;;;;;5015214;28;20385;-71
2022/07/16 12:30:57;;;;;;;0.60;0.60;;;27.10;47.20;;;;;;5015357;28;20414;-71
2022/07/16 12:33:28;;;;;;;1.10;1.00;;;27.30;46.30;;;;;;5015335;28;20413;-71
2022/07/16 12:36:10;;;;;;;0.60;0.60;;;27.70;45.80;;;;;;5015420;28;20434;-71
2022/07/16 12:38:39;;;;;;;0.93;0.63;;;27.80;46.50;;;;;;5014843;28;20552;-71
2022/07/16 12:41:11;;;;;;;0.80;0.80;;;27.90;47.00;;;;;;5015142;28;20414;-71
2022/07/16 12:43:37;;;;;;;0.90;0.87;;;28.00;46.00;;;;;;5015382;28;20934;-71
2022/07/16 12:46:03;;;;;;;1.13;1.03;;;28.00;44.60;;;;;;5014131;28;20418;-71
2022/07/16 12:48:30;;;;;;;0.80;0.80;;;27.80;45.20;;;;;;5014906;28;20938;-71
2022/07/16 12:50:56;;;;;;;0.63;0.57;;;27.60;44.40;;;;;;5014551;28;20477;-71
2022/07/16 12:53:22;;;;;;;1.27;0.90;;;27.80;44.00;;;;;;5014505;28;20429;-71
2022/07/16 12:58:47;;;;;;;1.27;1.03;;;28.10;43.50;;;;;;5014737;28;20468;-71
2022/07/16 13:01:13;;;;;;;0.70;0.70;;;27.90;42.60;;;;;;5014303;28;20392;-71
2022/07/16 13:03:40;;;;;;;0.77;0.77;;;28.00;44.20;;;;;;5014856;28;20485;-71